PWSweather.com
Personal Weather Stations
Station Observations
KILMORRI1
Goose Lake, Morris, IL 60450

Goose LakeMorris, IL 60450

Lat: 41.34, Lon: -88.3

Elevation: 523

Station Type:

www.gooselakeweather.com

High Low Average
Temperature 8.2°F-13.2°C -4.1°F-20.1°C 2.8°F-16.2°C
Dew Point 4.2°F-15.4°C -10.8°F-23.8°C -3.4°F-19.7°C
Winds 13.8 mph 22.2 kmh Calm Calm 4.0 mph WSW6.4 kmh WSW
Wind Gusts 19.6 mph31.5 kmh -- 7.0 mph11.3 kmh
Humidity 84% 64% 75%
Pressure 30.34 in1027.4 mb 30.22 in1023.4 mb -
Precipitation 0.00 in0.0 mm - -
Hour Temp Dew Point Humidity Winds Wind Gusts Pressure Precip Precip Rate Daily Precip Total
12:00 AM 3.0°F-16.1°C -3.4°F-19.7°C 74% 10.4 mph W16.7 kmh W 13.8 mph22.2 kmh 30.20 in1022.7 mb - 0.00 in0.0 mm 0.00 in0.0 mm
12:10 AM 2.8°F-16.2°C -3.6°F-19.8°C 74% 9.2 mph W14.8 kmh W 12.7 mph20.4 kmh 30.21 in1023.0 mb - 0.00 in0.0 mm 0.00 in0.0 mm
12:20 AM 2.6°F-16.3°C -3.8°F-19.9°C 74% 6.9 mph W11.1 kmh W 13.8 mph22.2 kmh 30.21 in1023.0 mb - 0.00 in0.0 mm 0.00 in0.0 mm
12:30 AM 2.4°F-16.4°C -3.7°F-19.8°C 75% 9.2 mph W14.8 kmh W 18.4 mph29.6 kmh 30.21 in1023.0 mb - 0.00 in0.0 mm 0.00 in0.0 mm
12:40 AM 2.2°F-16.6°C -3.9°F-19.9°C 75% 11.5 mph W18.5 kmh W 19.6 mph31.5 kmh 30.22 in1023.4 mb - 0.00 in0.0 mm 0.00 in0.0 mm
12:50 AM 2.1°F-16.6°C -4.0°F-20.0°C 75% 6.9 mph W11.1 kmh W 10.4 mph16.7 kmh 30.22 in1023.4 mb - 0.00 in0.0 mm 0.00 in0.0 mm
01:00 AM 1.8°F-16.8°C -4.3°F-20.2°C 75% 13.8 mph WNW22.2 kmh WNW 19.6 mph31.5 kmh 30.23 in1023.7 mb - 0.00 in0.0 mm 0.00 in0.0 mm
01:10 AM 1.7°F-16.8°C -4.4°F-20.2°C 75% 10.4 mph W16.7 kmh W 13.8 mph22.2 kmh 30.23 in1023.7 mb - 0.00 in0.0 mm 0.00 in0.0 mm
01:20 AM 1.5°F-16.9°C -4.6°F-20.3°C 75% 9.2 mph W14.8 kmh W 12.7 mph20.4 kmh 30.23 in1023.7 mb - 0.00 in0.0 mm 0.00 in0.0 mm
01:30 AM 1.3°F-17.1°C -4.8°F-20.4°C 75% 11.5 mph WSW18.5 kmh WSW 17.3 mph27.8 kmh 30.23 in1023.7 mb - 0.00 in0.0 mm 0.00 in0.0 mm
01:40 AM 1.1°F-17.2°C -5.0°F-20.6°C 75% 9.2 mph W14.8 kmh W 17.3 mph27.8 kmh 30.24 in1024.0 mb - 0.00 in0.0 mm 0.00 in0.0 mm
01:50 AM 0.9°F-17.3°C -5.2°F-20.7°C 75% 12.7 mph W20.4 kmh W 19.6 mph31.5 kmh 30.25 in1024.4 mb - 0.00 in0.0 mm 0.00 in0.0 mm
02:00 AM 0.8°F-17.3°C -5.3°F-20.7°C 75% 10.4 mph W16.7 kmh W 13.8 mph22.2 kmh 30.25 in1024.4 mb - 0.00 in0.0 mm 0.00 in0.0 mm
02:10 AM 0.6°F-17.4°C -5.4°F-20.8°C 75% 9.2 mph WSW14.8 kmh WSW 12.7 mph20.4 kmh 30.25 in1024.4 mb - 0.00 in0.0 mm 0.00 in0.0 mm
02:20 AM 0.5°F-17.5°C -5.8°F-21.0°C 74% 8.1 mph W13.0 kmh W 15.0 mph24.1 kmh 30.25 in1024.4 mb - 0.00 in0.0 mm 0.00 in0.0 mm
02:30 AM 0.4°F-17.6°C -5.9°F-21.1°C 74% 8.1 mph W13.0 kmh W 12.7 mph20.4 kmh 30.26 in1024.7 mb - 0.00 in0.0 mm 0.00 in0.0 mm
02:40 AM 0.2°F-17.7°C -6.1°F-21.2°C 74% 6.9 mph W11.1 kmh W 11.5 mph18.5 kmh 30.26 in1024.7 mb - 0.00 in0.0 mm 0.00 in0.0 mm
02:50 AM 0.1°F-17.7°C -6.3°F-21.3°C 74% 5.8 mph WSW9.3 kmh WSW 10.4 mph16.7 kmh 30.26 in1024.7 mb - 0.00 in0.0 mm 0.00 in0.0 mm
03:00 AM -0.2°F-17.9°C -6.5°F-21.4°C 74% 6.9 mph W11.1 kmh W 8.1 mph13.0 kmh 30.27 in1025.1 mb - 0.00 in0.0 mm 0.00 in0.0 mm
03:10 AM -0.4°F-18.0°C -7.0°F-21.7°C 73% 5.8 mph WSW9.3 kmh WSW 6.9 mph11.1 kmh 30.27 in1025.1 mb - 0.00 in0.0 mm 0.00 in0.0 mm
03:20 AM -0.5°F-18.1°C -6.8°F-21.6°C 74% 5.8 mph W9.3 kmh W 10.4 mph16.7 kmh 30.28 in1025.4 mb - 0.00 in0.0 mm 0.00 in0.0 mm
03:30 AM -0.7°F-18.2°C -7.0°F-21.7°C 74% 8.1 mph W13.0 kmh W 11.5 mph18.5 kmh 30.27 in1025.1 mb - 0.00 in0.0 mm 0.00 in0.0 mm
03:40 AM -0.9°F-18.3°C -7.5°F-21.9°C 73% 8.1 mph W13.0 kmh W 15.0 mph24.1 kmh 30.28 in1025.4 mb - 0.00 in0.0 mm 0.00 in0.0 mm
03:50 AM -1.0°F-18.3°C -7.6°F-22.0°C 73% 6.9 mph W11.1 kmh W 8.1 mph13.0 kmh 30.28 in1025.4 mb - 0.00 in0.0 mm 0.00 in0.0 mm
04:00 AM -1.2°F-18.4°C -7.5°F-21.9°C 74% 9.2 mph W14.8 kmh W 11.5 mph18.5 kmh 30.27 in1025.1 mb - 0.00 in0.0 mm 0.00 in0.0 mm
04:10 AM -1.3°F-18.5°C -7.6°F-22.0°C 74% 6.9 mph WSW11.1 kmh WSW 8.1 mph13.0 kmh 30.28 in1025.4 mb - 0.00 in0.0 mm 0.00 in0.0 mm
04:20 AM -1.4°F-18.6°C -7.7°F-22.1°C 74% 10.4 mph WSW16.7 kmh WSW 15.0 mph24.1 kmh 30.29 in1025.7 mb - 0.00 in0.0 mm 0.00 in0.0 mm
04:30 AM -1.6°F-18.7°C -7.8°F-22.1°C 74% 8.1 mph W13.0 kmh W 11.5 mph18.5 kmh 30.29 in1025.7 mb - 0.00 in0.0 mm 0.00 in0.0 mm
04:40 AM -1.7°F-18.7°C -8.0°F-22.2°C 74% 8.1 mph W13.0 kmh W 15.0 mph24.1 kmh 30.29 in1025.7 mb - 0.00 in0.0 mm 0.00 in0.0 mm
04:50 AM -1.9°F-18.8°C -8.4°F-22.4°C 73% 8.1 mph W13.0 kmh W 15.0 mph24.1 kmh 30.29 in1025.7 mb - 0.00 in0.0 mm 0.00 in0.0 mm
05:00 AM -1.9°F-18.8°C -8.4°F-22.4°C 73% 6.9 mph W11.1 kmh W 16.1 mph25.9 kmh 30.30 in1026.1 mb - 0.00 in0.0 mm 0.00 in0.0 mm
05:10 AM -2.1°F-18.9°C -8.6°F-22.6°C 73% 10.4 mph W16.7 kmh W 16.1 mph25.9 kmh 30.30 in1026.1 mb - 0.00 in0.0 mm 0.00 in0.0 mm
05:20 AM -2.2°F-19.0°C -8.7°F-22.6°C 73% 8.1 mph W13.0 kmh W 10.4 mph16.7 kmh 30.30 in1026.1 mb - 0.00 in0.0 mm 0.00 in0.0 mm
05:30 AM -2.3°F-19.1°C -8.8°F-22.7°C 73% 5.8 mph W9.3 kmh W 10.4 mph16.7 kmh 30.30 in1026.1 mb - 0.00 in0.0 mm 0.00 in0.0 mm
05:40 AM -2.4°F-19.1°C -8.9°F-22.7°C 73% 4.6 mph WSW7.4 kmh WSW 10.4 mph16.7 kmh 30.30 in1026.1 mb - 0.00 in0.0 mm 0.00 in0.0 mm
05:50 AM -2.6°F-19.2°C -9.4°F-23.0°C 72% 6.9 mph W11.1 kmh W 11.5 mph18.5 kmh 30.30 in1026.1 mb - 0.00 in0.0 mm 0.00 in0.0 mm
06:00 AM -2.6°F-19.2°C -9.4°F-23.0°C 72% 4.6 mph W7.4 kmh W 8.1 mph13.0 kmh 30.30 in1026.1 mb - 0.00 in0.0 mm 0.00 in0.0 mm
06:10 AM -2.7°F-19.3°C -9.5°F-23.1°C 72% 6.9 mph WSW11.1 kmh WSW 12.7 mph20.4 kmh 30.30 in1026.1 mb - 0.00 in0.0 mm 0.00 in0.0 mm
06:20 AM -2.8°F-19.3°C -9.6°F-23.1°C 72% 5.8 mph WSW9.3 kmh WSW 10.4 mph16.7 kmh 30.30 in1026.1 mb - 0.00 in0.0 mm 0.00 in0.0 mm
06:30 AM -3.0°F-19.4°C -9.8°F-23.2°C 72% 5.8 mph WSW9.3 kmh WSW 10.4 mph16.7 kmh 30.30 in1026.1 mb - 0.00 in0.0 mm 0.00 in0.0 mm
06:40 AM -3.1°F-19.5°C -9.9°F-23.3°C 72% 8.1 mph WSW13.0 kmh WSW 8.1 mph13.0 kmh 30.30 in1026.1 mb - 0.00 in0.0 mm 0.00 in0.0 mm
06:50 AM -3.3°F-19.6°C -10.1°F-23.4°C 72% 9.2 mph W14.8 kmh W 11.5 mph18.5 kmh 30.31 in1026.4 mb - 0.00 in0.0 mm 0.00 in0.0 mm
07:00 AM -3.4°F-19.7°C -10.2°F-23.4°C 72% 8.1 mph W13.0 kmh W 15.0 mph24.1 kmh 30.32 in1026.8 mb - 0.00 in0.0 mm 0.00 in0.0 mm
07:10 AM -3.5°F-19.7°C -10.3°F-23.5°C 72% 6.9 mph W11.1 kmh W 9.2 mph14.8 kmh 30.32 in1026.8 mb - 0.00 in0.0 mm 0.00 in0.0 mm
07:20 AM -3.6°F-19.8°C -10.4°F-23.6°C 72% 3.5 mph WSW5.6 kmh WSW 8.1 mph13.0 kmh 30.32 in1026.8 mb - 0.00 in0.0 mm 0.00 in0.0 mm
07:30 AM -3.7°F-19.8°C -10.5°F-23.6°C 72% 5.8 mph W9.3 kmh W 9.2 mph14.8 kmh 30.32 in1026.8 mb - 0.00 in0.0 mm 0.00 in0.0 mm
07:40 AM -3.8°F-19.9°C -10.5°F-23.6°C 72% 4.6 mph W7.4 kmh W 4.6 mph7.4 kmh 30.32 in1026.8 mb - 0.00 in0.0 mm 0.00 in0.0 mm
07:50 AM -3.9°F-19.9°C -10.7°F-23.7°C 72% 4.6 mph W7.4 kmh W 6.9 mph11.1 kmh 30.31 in1026.4 mb - 0.00 in0.0 mm 0.00 in0.0 mm
08:00 AM -4.0°F-20.0°C -10.8°F-23.8°C 72% 5.8 mph WSW9.3 kmh WSW 6.9 mph11.1 kmh 30.31 in1026.4 mb - 0.00 in0.0 mm 0.00 in0.0 mm
08:10 AM -4.0°F-20.0°C -10.8°F-23.8°C 72% 5.8 mph W9.3 kmh W 9.2 mph14.8 kmh 30.31 in1026.4 mb - 0.00 in0.0 mm 0.00 in0.0 mm
08:20 AM -4.1°F-20.1°C -10.8°F-23.8°C 72% 2.3 mph W3.7 kmh W 3.5 mph5.6 kmh 30.31 in1026.4 mb - 0.00 in0.0 mm 0.00 in0.0 mm
08:30 AM -4.0°F-20.0°C -10.5°F-23.6°C 73% 3.5 mph WNW5.6 kmh WNW 5.8 mph9.3 kmh 30.32 in1026.8 mb - 0.00 in0.0 mm 0.00 in0.0 mm
08:40 AM -4.0°F-20.0°C -10.5°F-23.6°C 73% 4.6 mph WNW7.4 kmh WNW 4.6 mph7.4 kmh 30.32 in1026.8 mb - 0.00 in0.0 mm 0.00 in0.0 mm
08:50 AM -3.8°F-19.9°C -10.3°F-23.5°C 73% 3.5 mph WSW5.6 kmh WSW 4.6 mph7.4 kmh 30.32 in1026.8 mb - 0.00 in0.0 mm 0.00 in0.0 mm
09:00 AM -3.6°F-19.8°C -10.1°F-23.4°C 73% 4.6 mph W7.4 kmh W 6.9 mph11.1 kmh 30.32 in1026.8 mb - 0.00 in0.0 mm 0.00 in0.0 mm
09:10 AM -3.3°F-19.6°C -10.1°F-23.4°C 72% 4.6 mph W7.4 kmh W 5.8 mph9.3 kmh 30.32 in1026.8 mb - 0.00 in0.0 mm 0.00 in0.0 mm
09:20 AM -3.0°F-19.4°C -10.1°F-23.4°C 71% 3.5 mph W5.6 kmh W 4.6 mph7.4 kmh 30.31 in1026.4 mb - 0.00 in0.0 mm 0.00 in0.0 mm
09:30 AM -2.7°F-19.3°C -9.7°F-23.2°C 71% 5.8 mph SW9.3 kmh SW 6.9 mph11.1 kmh 30.31 in1026.4 mb - 0.00 in0.0 mm 0.00 in0.0 mm
09:40 AM -2.3°F-19.1°C -10.0°F-23.3°C 69% 2.3 mph WSW3.7 kmh WSW 4.6 mph7.4 kmh 30.31 in1026.4 mb - 0.00 in0.0 mm 0.00 in0.0 mm
09:50 AM -1.7°F-18.7°C -9.4°F-23.0°C 69% 5.8 mph W9.3 kmh W 6.9 mph11.1 kmh 30.32 in1026.8 mb - 0.00 in0.0 mm 0.00 in0.0 mm
10:00 AM -1.5°F-18.6°C -9.5°F-23.1°C 68% 4.6 mph WSW7.4 kmh WSW 5.8 mph9.3 kmh 30.32 in1026.8 mb - 0.00 in0.0 mm 0.00 in0.0 mm
10:10 AM -1.0°F-18.3°C -8.7°F-22.6°C 69% 5.8 mph SW9.3 kmh SW 8.1 mph13.0 kmh 30.33 in1027.1 mb - 0.00 in0.0 mm 0.00 in0.0 mm
10:20 AM -0.6°F-18.1°C -8.4°F-22.4°C 69% 5.8 mph W9.3 kmh W 6.9 mph11.1 kmh 30.33 in1027.1 mb - 0.00 in0.0 mm 0.00 in0.0 mm
10:30 AM 0.3°F-17.6°C -7.5°F-21.9°C 69% 4.6 mph WSW7.4 kmh WSW 6.9 mph11.1 kmh 30.34 in1027.4 mb - 0.00 in0.0 mm 0.00 in0.0 mm
10:40 AM 0.6°F-17.4°C -7.5°F-21.9°C 68% 6.9 mph W11.1 kmh W 9.2 mph14.8 kmh 30.34 in1027.4 mb - 0.00 in0.0 mm 0.00 in0.0 mm
10:50 AM 0.4°F-17.6°C -7.7°F-22.1°C 68% 5.8 mph SW9.3 kmh SW 6.9 mph11.1 kmh 30.33 in1027.1 mb - 0.00 in0.0 mm 0.00 in0.0 mm
11:00 AM 0.6°F-17.4°C -7.2°F-21.8°C 69% 4.6 mph SW7.4 kmh SW 8.1 mph13.0 kmh 30.33 in1027.1 mb - 0.00 in0.0 mm 0.00 in0.0 mm
11:10 AM 0.9°F-17.3°C -6.6°F-21.4°C 70% 5.8 mph SW9.3 kmh SW 9.2 mph14.8 kmh 30.33 in1027.1 mb - 0.00 in0.0 mm 0.00 in0.0 mm
11:20 AM 1.0°F-17.2°C -6.8°F-21.6°C 69% 5.8 mph SSW9.3 kmh SSW 8.1 mph13.0 kmh 30.34 in1027.4 mb - 0.00 in0.0 mm 0.00 in0.0 mm
11:30 AM 1.5°F-16.9°C -6.7°F-21.5°C 68% 5.8 mph SW9.3 kmh SW 10.4 mph16.7 kmh 30.34 in1027.4 mb - 0.00 in0.0 mm 0.00 in0.0 mm
11:40 AM 1.9°F-16.7°C -5.7°F-20.9°C 70% 5.8 mph SW9.3 kmh SW 6.9 mph11.1 kmh 30.34 in1027.4 mb - 0.00 in0.0 mm 0.00 in0.0 mm
11:50 AM 2.4°F-16.4°C -5.4°F-20.8°C 69% 4.6 mph SSW7.4 kmh SSW 9.2 mph14.8 kmh 30.34 in1027.4 mb - 0.00 in0.0 mm 0.00 in0.0 mm
12:00 PM 2.6°F-16.3°C -6.1°F-21.2°C 66% 4.6 mph SW7.4 kmh SW 6.9 mph11.1 kmh 30.33 in1027.1 mb - 0.00 in0.0 mm 0.00 in0.0 mm
12:10 PM 3.8°F-15.7°C -4.8°F-20.4°C 67% 4.6 mph SSW7.4 kmh SSW 5.8 mph9.3 kmh 30.32 in1026.8 mb - 0.00 in0.0 mm 0.00 in0.0 mm
12:20 PM 3.4°F-15.9°C -5.7°F-20.9°C 65% 5.8 mph S9.3 kmh S 8.1 mph13.0 kmh 30.31 in1026.4 mb - 0.00 in0.0 mm 0.00 in0.0 mm
12:30 PM 3.7°F-15.7°C -5.1°F-20.6°C 66% 4.6 mph SSW7.4 kmh SSW 6.9 mph11.1 kmh 30.31 in1026.4 mb - 0.00 in0.0 mm 0.00 in0.0 mm
12:40 PM 4.0°F-15.6°C -4.2°F-20.1°C 68% 4.6 mph SSW7.4 kmh SSW 6.9 mph11.1 kmh 30.30 in1026.1 mb - 0.00 in0.0 mm 0.00 in0.0 mm
12:50 PM 4.0°F-15.6°C -4.5°F-20.3°C 67% 5.8 mph S9.3 kmh S 8.1 mph13.0 kmh 30.28 in1025.4 mb - 0.00 in0.0 mm 0.00 in0.0 mm
01:00 PM 4.0°F-15.6°C -4.8°F-20.4°C 66% 8.1 mph SW13.0 kmh SW 11.5 mph18.5 kmh 30.29 in1025.7 mb - 0.00 in0.0 mm 0.00 in0.0 mm
01:10 PM 4.5°F-15.3°C -5.0°F-20.6°C 64% 8.1 mph SW13.0 kmh SW 9.2 mph14.8 kmh 30.29 in1025.7 mb - 0.00 in0.0 mm 0.00 in0.0 mm
01:20 PM 5.4°F-14.8°C -4.2°F-20.1°C 64% 5.8 mph SW9.3 kmh SW 8.1 mph13.0 kmh 30.30 in1026.1 mb - 0.00 in0.0 mm 0.00 in0.0 mm
01:30 PM 4.9°F-15.1°C -4.3°F-20.2°C 65% 5.8 mph SSW9.3 kmh SSW 10.4 mph16.7 kmh 30.29 in1025.7 mb - 0.00 in0.0 mm 0.00 in0.0 mm
01:40 PM 4.9°F-15.1°C -4.3°F-20.2°C 65% 5.8 mph SW9.3 kmh SW 8.1 mph13.0 kmh 30.27 in1025.1 mb - 0.00 in0.0 mm 0.00 in0.0 mm
01:50 PM 5.0°F-15.0°C -4.5°F-20.3°C 64% 4.6 mph SW7.4 kmh SW 6.9 mph11.1 kmh 30.27 in1025.1 mb - 0.00 in0.0 mm 0.00 in0.0 mm
02:00 PM 4.8°F-15.1°C -4.1°F-20.1°C 66% 4.6 mph S7.4 kmh S 6.9 mph11.1 kmh 30.27 in1025.1 mb - 0.00 in0.0 mm 0.00 in0.0 mm
02:10 PM 5.0°F-15.0°C -3.6°F-19.8°C 67% 5.8 mph SSW9.3 kmh SSW 6.9 mph11.1 kmh 30.28 in1025.4 mb - 0.00 in0.0 mm 0.00 in0.0 mm
02:20 PM 5.5°F-14.7°C -3.4°F-19.7°C 66% 4.6 mph SW7.4 kmh SW 8.1 mph13.0 kmh 30.27 in1025.1 mb - 0.00 in0.0 mm 0.00 in0.0 mm
02:30 PM 5.7°F-14.6°C -3.2°F-19.6°C 66% 4.6 mph SW7.4 kmh SW 6.9 mph11.1 kmh 30.27 in1025.1 mb - 0.00 in0.0 mm 0.00 in0.0 mm
02:40 PM 5.3°F-14.8°C -3.9°F-19.9°C 65% 5.8 mph SSW9.3 kmh SSW 6.9 mph11.1 kmh 30.27 in1025.1 mb - 0.00 in0.0 mm 0.00 in0.0 mm
02:50 PM 5.4°F-14.8°C -3.5°F-19.7°C 66% 4.6 mph SW7.4 kmh SW 8.1 mph13.0 kmh 30.27 in1025.1 mb - 0.00 in0.0 mm 0.00 in0.0 mm
03:00 PM 5.2°F-14.9°C -3.4°F-19.7°C 67% 4.6 mph SW7.4 kmh SW 9.2 mph14.8 kmh 30.27 in1025.1 mb - 0.00 in0.0 mm 0.00 in0.0 mm
03:10 PM 5.2°F-14.9°C -2.4°F-19.1°C 70% 2.3 mph SW3.7 kmh SW 2.3 mph3.7 kmh 30.27 in1025.1 mb - 0.00 in0.0 mm 0.00 in0.0 mm
03:20 PM 5.3°F-14.8°C -1.8°F-18.8°C 72% 2.3 mph SW3.7 kmh SW 3.5 mph5.6 kmh 30.26 in1024.7 mb - 0.00 in0.0 mm 0.00 in0.0 mm
03:30 PM 5.4°F-14.8°C -1.1°F-18.4°C 74% 5.8 mph SSW9.3 kmh SSW 6.9 mph11.1 kmh 30.26 in1024.7 mb - 0.00 in0.0 mm 0.00 in0.0 mm
03:40 PM 5.4°F-14.8°C -0.8°F-18.2°C 75% 3.5 mph SSW5.6 kmh SSW 5.8 mph9.3 kmh 30.26 in1024.7 mb - 0.00 in0.0 mm 0.00 in0.0 mm
03:50 PM 5.4°F-14.8°C -0.5°F-18.1°C 76% 2.3 mph S3.7 kmh S 3.5 mph5.6 kmh 30.26 in1024.7 mb - 0.00 in0.0 mm 0.00 in0.0 mm
04:00 PM 5.6°F-14.7°C -0.1°F-17.8°C 77% 3.5 mph SW5.6 kmh SW 6.9 mph11.1 kmh 30.25 in1024.4 mb - 0.00 in0.0 mm 0.00 in0.0 mm
04:10 PM 5.6°F-14.7°C 0.2°F-17.7°C 78% 4.6 mph SSW7.4 kmh SSW 6.9 mph11.1 kmh 30.25 in1024.4 mb - 0.00 in0.0 mm 0.00 in0.0 mm
04:20 PM 5.6°F-14.7°C 0.5°F-17.5°C 79% 2.3 mph S3.7 kmh S 5.8 mph9.3 kmh 30.25 in1024.4 mb - 0.00 in0.0 mm 0.00 in0.0 mm
04:30 PM 5.8°F-14.6°C 0.7°F-17.4°C 79% 2.3 mph SW3.7 kmh SW 3.5 mph5.6 kmh 30.25 in1024.4 mb - 0.00 in0.0 mm 0.00 in0.0 mm
04:40 PM 6.0°F-14.4°C 1.2°F-17.1°C 80% 4.6 mph SW7.4 kmh SW 8.1 mph13.0 kmh 30.25 in1024.4 mb - 0.00 in0.0 mm 0.00 in0.0 mm
04:50 PM 5.9°F-14.5°C 1.3°F-17.1°C 81% 3.5 mph S5.6 kmh S 4.6 mph7.4 kmh 30.25 in1024.4 mb - 0.00 in0.0 mm 0.00 in0.0 mm
05:00 PM 5.9°F-14.5°C 1.3°F-17.1°C 81% 4.6 mph S7.4 kmh S 5.8 mph9.3 kmh 30.24 in1024.0 mb - 0.00 in0.0 mm 0.00 in0.0 mm
05:10 PM 6.0°F-14.4°C 1.4°F-17.0°C 81% 1.2 mph S1.9 kmh S 2.3 mph3.7 kmh 30.24 in1024.0 mb - 0.00 in0.0 mm 0.00 in0.0 mm
05:20 PM 6.1°F-14.4°C 1.5°F-16.9°C 81% 1.2 mph S1.9 kmh S 2.3 mph3.7 kmh 30.24 in1024.0 mb - 0.00 in0.0 mm 0.00 in0.0 mm
05:30 PM 6.2°F-14.3°C 1.6°F-16.9°C 81% Calm Calm -- 30.24 in1024.0 mb - 0.00 in0.0 mm 0.00 in0.0 mm
05:40 PM 6.2°F-14.3°C 1.6°F-16.9°C 81% 1.2 mph S1.9 kmh S 2.3 mph3.7 kmh 30.24 in1024.0 mb - 0.00 in0.0 mm 0.00 in0.0 mm
05:50 PM 6.3°F-14.3°C 2.0°F-16.7°C 82% 1.2 mph S1.9 kmh S 2.3 mph3.7 kmh 30.23 in1023.7 mb - 0.00 in0.0 mm 0.00 in0.0 mm
06:00 PM 6.3°F-14.3°C 1.7°F-16.8°C 81% 1.2 mph S1.9 kmh S 1.2 mph1.9 kmh 30.23 in1023.7 mb - 0.00 in0.0 mm 0.00 in0.0 mm
06:10 PM 6.3°F-14.3°C 1.7°F-16.8°C 81% Calm Calm 1.2 mph1.9 kmh 30.23 in1023.7 mb - 0.00 in0.0 mm 0.00 in0.0 mm
06:20 PM 6.4°F-14.2°C 2.1°F-16.6°C 82% 1.2 mph S1.9 kmh S 1.2 mph1.9 kmh 30.23 in1023.7 mb - 0.00 in0.0 mm 0.00 in0.0 mm
06:30 PM 6.3°F-14.3°C 1.9°F-16.7°C 82% Calm Calm -- 30.22 in1023.4 mb - 0.00 in0.0 mm 0.00 in0.0 mm
06:40 PM 6.3°F-14.3°C 1.9°F-16.7°C 82% Calm Calm 1.2 mph1.9 kmh 30.22 in1023.4 mb - 0.00 in0.0 mm 0.00 in0.0 mm
06:50 PM 6.3°F-14.3°C 1.9°F-16.7°C 82% Calm Calm 1.2 mph1.9 kmh 30.22 in1023.4 mb - 0.00 in0.0 mm 0.00 in0.0 mm
07:00 PM 6.4°F-14.2°C 2.3°F-16.5°C 83% 1.2 mph S1.9 kmh S 1.2 mph1.9 kmh 30.22 in1023.4 mb - 0.00 in0.0 mm 0.00 in0.0 mm
07:10 PM 6.5°F-14.2°C 2.4°F-16.4°C 83% 1.2 mph NW1.9 kmh NW 2.3 mph3.7 kmh 30.22 in1023.4 mb - 0.00 in0.0 mm 0.00 in0.0 mm
07:20 PM 6.5°F-14.2°C 2.4°F-16.4°C 83% Calm Calm 1.2 mph1.9 kmh 30.22 in1023.4 mb - 0.00 in0.0 mm 0.00 in0.0 mm
07:30 PM 6.6°F-14.1°C 2.5°F-16.4°C 83% Calm Calm 1.2 mph1.9 kmh 30.22 in1023.4 mb - 0.00 in0.0 mm 0.00 in0.0 mm
07:40 PM 6.7°F-14.1°C 2.6°F-16.3°C 83% 2.3 mph ESE3.7 kmh ESE 2.3 mph3.7 kmh 30.22 in1023.4 mb - 0.00 in0.0 mm 0.00 in0.0 mm
07:50 PM 6.8°F-14.0°C 2.7°F-16.3°C 83% 1.2 mph ESE1.9 kmh ESE 2.3 mph3.7 kmh 30.22 in1023.4 mb - 0.00 in0.0 mm 0.00 in0.0 mm
08:00 PM 7.0°F-13.9°C 2.9°F-16.2°C 83% Calm Calm 1.2 mph1.9 kmh 30.22 in1023.4 mb - 0.00 in0.0 mm 0.00 in0.0 mm
08:10 PM 7.1°F-13.8°C 3.0°F-16.1°C 83% 1.2 mph NE1.9 kmh NE 2.3 mph3.7 kmh 30.23 in1023.7 mb - 0.00 in0.0 mm 0.00 in0.0 mm
08:20 PM 7.1°F-13.8°C 3.0°F-16.1°C 83% 1.2 mph N1.9 kmh N 1.2 mph1.9 kmh 30.23 in1023.7 mb - 0.00 in0.0 mm 0.00 in0.0 mm
08:30 PM 7.2°F-13.8°C 3.1°F-16.1°C 83% Calm Calm 1.2 mph1.9 kmh 30.23 in1023.7 mb - 0.00 in0.0 mm 0.00 in0.0 mm
08:40 PM 7.4°F-13.7°C 3.3°F-15.9°C 83% Calm Calm 2.3 mph3.7 kmh 30.23 in1023.7 mb - 0.00 in0.0 mm 0.00 in0.0 mm
08:50 PM 7.7°F-13.5°C 3.6°F-15.8°C 83% 1.2 mph NNW1.9 kmh NNW 3.5 mph5.6 kmh 30.23 in1023.7 mb - 0.00 in0.0 mm 0.00 in0.0 mm
09:00 PM 7.9°F-13.4°C 4.1°F-15.5°C 84% 1.2 mph NNW1.9 kmh NNW 2.3 mph3.7 kmh 30.23 in1023.7 mb - 0.00 in0.0 mm 0.00 in0.0 mm
09:10 PM 8.0°F-13.3°C 4.2°F-15.4°C 84% 1.2 mph N1.9 kmh N 3.5 mph5.6 kmh 30.23 in1023.7 mb - 0.00 in0.0 mm 0.00 in0.0 mm
09:20 PM 8.0°F-13.3°C 4.2°F-15.4°C 84% 1.2 mph NNE1.9 kmh NNE 3.5 mph5.6 kmh 30.23 in1023.7 mb - 0.00 in0.0 mm 0.00 in0.0 mm
09:30 PM 8.0°F-13.3°C 3.9°F-15.6°C 83% 1.2 mph N1.9 kmh N 1.2 mph1.9 kmh 30.23 in1023.7 mb - 0.00 in0.0 mm 0.00 in0.0 mm
09:40 PM 8.0°F-13.3°C 3.9°F-15.6°C 83% 1.2 mph N1.9 kmh N 2.3 mph3.7 kmh 30.23 in1023.7 mb - 0.00 in0.0 mm 0.00 in0.0 mm
09:50 PM 8.1°F-13.3°C 4.0°F-15.6°C 83% 1.2 mph N1.9 kmh N 1.2 mph1.9 kmh 30.23 in1023.7 mb - 0.00 in0.0 mm 0.00 in0.0 mm
10:00 PM 8.1°F-13.3°C 4.0°F-15.6°C 83% 1.2 mph N1.9 kmh N 2.3 mph3.7 kmh 30.23 in1023.7 mb - 0.00 in0.0 mm 0.00 in0.0 mm
10:10 PM 8.2°F-13.2°C 4.1°F-15.5°C 83% Calm Calm 1.2 mph1.9 kmh 30.23 in1023.7 mb - 0.00 in0.0 mm 0.00 in0.0 mm
10:20 PM 8.2°F-13.2°C 4.1°F-15.5°C 83% 1.2 mph N1.9 kmh N 3.5 mph5.6 kmh 30.23 in1023.7 mb - 0.00 in0.0 mm 0.00 in0.0 mm
10:30 PM 8.2°F-13.2°C 4.1°F-15.5°C 83% 1.2 mph N1.9 kmh N 2.3 mph3.7 kmh 30.23 in1023.7 mb - 0.00 in0.0 mm 0.00 in0.0 mm
10:40 PM 8.2°F-13.2°C 4.1°F-15.5°C 83% 1.2 mph N1.9 kmh N 3.5 mph5.6 kmh 30.23 in1023.7 mb - 0.00 in0.0 mm 0.00 in0.0 mm
10:50 PM 8.2°F-13.2°C 4.1°F-15.5°C 83% 1.2 mph NNW1.9 kmh NNW 3.5 mph5.6 kmh 30.24 in1024.0 mb - 0.00 in0.0 mm 0.00 in0.0 mm
11:00 PM 8.1°F-13.3°C 4.0°F-15.6°C 83% 2.3 mph NNW3.7 kmh NNW 4.6 mph7.4 kmh 30.24 in1024.0 mb - 0.00 in0.0 mm 0.00 in0.0 mm
11:10 PM 7.9°F-13.4°C 3.5°F-15.8°C 82% 1.2 mph NNW1.9 kmh NNW 3.5 mph5.6 kmh 30.24 in1024.0 mb - 0.00 in0.0 mm 0.00 in0.0 mm
11:20 PM 7.7°F-13.5°C 3.4°F-15.9°C 82% 1.2 mph N1.9 kmh N 2.3 mph3.7 kmh 30.24 in1024.0 mb - 0.00 in0.0 mm 0.00 in0.0 mm
11:30 PM 7.6°F-13.6°C 3.3°F-15.9°C 82% 2.3 mph NNW3.7 kmh NNW 3.5 mph5.6 kmh 30.24 in1024.0 mb - 0.00 in0.0 mm 0.00 in0.0 mm
11:40 PM 7.5°F-13.6°C 3.1°F-16.1°C 82% 1.2 mph NW1.9 kmh NW 2.3 mph3.7 kmh 30.25 in1024.4 mb - 0.00 in0.0 mm 0.00 in0.0 mm
11:50 PM 7.3°F-13.7°C 3.0°F-16.1°C 82% 2.3 mph NNW3.7 kmh NNW 3.5 mph5.6 kmh 30.25 in1024.4 mb - 0.00 in0.0 mm 0.00 in0.0 mm